sensor_id;sensor_type;location;lat;lon;timestamp;temperature;humidity
11087;DHT22;5597;47.588;9.642;2024-03-23T00:53:46;8.80;99.90
11087;DHT22;5597;47.588;9.642;2024-03-23T00:56:12;8.80;99.90
11087;DHT22;5597;47.588;9.642;2024-03-23T00:58:37;8.80;99.90
11087;DHT22;5597;47.588;9.642;2024-03-23T01:01:03;8.90;99.90
11087;DHT22;5597;47.588;9.642;2024-03-23T01:03:29;8.90;99.90
11087;DHT22;5597;47.588;9.642;2024-03-23T01:06:01;8.90;99.90
11087;DHT22;5597;47.588;9.642;2024-03-23T01:08:27;8.90;99.90
11087;DHT22;5597;47.588;9.642;2024-03-23T01:11:00;8.90;99.90
11087;DHT22;5597;47.588;9.642;2024-03-23T01:13:27;8.90;99.90
11087;DHT22;5597;47.588;9.642;2024-03-23T01:15:53;9.00;99.90
11087;DHT22;5597;47.588;9.642;2024-03-23T01:18:19;9.00;99.90
11087;DHT22;5597;47.588;9.642;2024-03-23T01:20:45;9.00;99.90
11087;DHT22;5597;47.588;9.642;2024-03-23T01:23:11;9.00;99.90
11087;DHT22;5597;47.588;9.642;2024-03-23T01:25:37;9.00;99.90
11087;DHT22;5597;47.588;9.642;2024-03-23T01:28:03;9.00;99.90
11087;DHT22;5597;47.588;9.642;2024-03-23T01:30:28;9.00;99.90
11087;DHT22;5597;47.588;9.642;2024-03-23T01:32:54;9.00;99.90
11087;DHT22;5597;47.588;9.642;2024-03-23T01:35:19;8.90;99.90
11087;DHT22;5597;47.588;9.642;2024-03-23T01:37:45;8.90;99.90
11087;DHT22;5597;47.588;9.642;2024-03-23T01:40:11;8.90;99.90
11087;DHT22;5597;47.588;9.642;2024-03-23T01:42:41;8.90;99.90
11087;DHT22;5597;47.588;9.642;2024-03-23T01:45:08;8.90;99.90
11087;DHT22;5597;47.588;9.642;2024-03-23T01:47:34;8.90;99.90
11087;DHT22;5597;47.588;9.642;2024-03-23T01:49:59;8.90;99.90
11087;DHT22;5597;47.588;9.642;2024-03-23T01:52:29;8.90;99.90
11087;DHT22;5597;47.588;9.642;2024-03-23T01:54:55;8.90;99.90
11087;DHT22;5597;47.588;9.642;2024-03-23T01:57:21;8.90;99.90
11087;DHT22;5597;47.588;9.642;2024-03-23T01:59:48;9.00;99.90
11087;DHT22;5597;47.588;9.642;2024-03-23T02:02:13;9.00;99.90
11087;DHT22;5597;47.588;9.642;2024-03-23T02:04:39;9.00;99.90
11087;DHT22;5597;47.588;9.642;2024-03-23T02:07:06;9.00;99.90
11087;DHT22;5597;47.588;9.642;2024-03-23T02:09:32;9.10;99.90
11087;DHT22;5597;47.588;9.642;2024-03-23T02:11:58;9.10;99.90
11087;DHT22;5597;47.588;9.642;2024-03-23T02:14:24;9.10;99.90
11087;DHT22;5597;47.588;9.642;2024-03-23T02:16:49;9.10;99.90
11087;DHT22;5597;47.588;9.642;2024-03-23T02:19:15;9.20;99.90
11087;DHT22;5597;47.588;9.642;2024-03-23T02:21:40;9.20;99.90
11087;DHT22;5597;47.588;9.642;2024-03-23T02:24:06;9.20;99.90
11087;DHT22;5597;47.588;9.642;2024-03-23T02:26:32;9.10;99.90
11087;DHT22;5597;47.588;9.642;2024-03-23T02:28:57;9.00;99.90
11087;DHT22;5597;47.588;9.642;2024-03-23T02:31:23;9.00;99.90
11087;DHT22;5597;47.588;9.642;2024-03-23T02:33:48;8.90;99.90
11087;DHT22;5597;47.588;9.642;2024-03-23T02:36:14;8.90;99.90
11087;DHT22;5597;47.588;9.642;2024-03-23T02:38:39;8.90;99.90
11087;DHT22;5597;47.588;9.642;2024-03-23T02:41:05;8.90;99.90
11087;DHT22;5597;47.588;9.642;2024-03-23T02:43:31;8.90;99.90
11087;DHT22;5597;47.588;9.642;2024-03-23T02:45:57;8.80;99.90
11087;DHT22;5597;47.588;9.642;2024-03-23T02:48:22;8.80;99.90
11087;DHT22;5597;47.588;9.642;2024-03-23T02:50:49;8.80;99.90
11087;DHT22;5597;47.588;9.642;2024-03-23T02:53:14;8.80;99.90
11087;DHT22;5597;47.588;9.642;2024-03-23T02:55:40;8.80;99.90
11087;DHT22;5597;47.588;9.642;2024-03-23T02:58:05;8.80;99.90
11087;DHT22;5597;47.588;9.642;2024-03-23T03:00:31;8.70;99.90
11087;DHT22;5597;47.588;9.642;2024-03-23T03:02:56;8.80;99.90
11087;DHT22;5597;47.588;9.642;2024-03-23T03:05:22;8.80;99.90
11087;DHT22;5597;47.588;9.642;2024-03-23T03:07:48;8.90;99.90
11087;DHT22;5597;47.588;9.642;2024-03-23T03:10:13;8.90;99.90
11087;DHT22;5597;47.588;9.642;2024-03-23T03:12:39;9.00;99.90
11087;DHT22;5597;47.588;9.642;2024-03-23T03:15:05;9.00;99.90
11087;DHT22;5597;47.588;9.642;2024-03-23T03:17:31;9.00;99.90
11087;DHT22;5597;47.588;9.642;2024-03-23T03:19:57;9.00;99.90
11087;DHT22;5597;47.588;9.642;2024-03-23T03:22:22;9.00;99.90
11087;DHT22;5597;47.588;9.642;2024-03-23T03:24:49;9.00;99.90
11087;DHT22;5597;47.588;9.642;2024-03-23T03:27:14;9.10;99.90
11087;DHT22;5597;47.588;9.642;2024-03-23T03:29:40;9.10;99.90
11087;DHT22;5597;47.588;9.642;2024-03-23T03:32:06;9.20;99.90
11087;DHT22;5597;47.588;9.642;2024-03-23T03:34:31;9.20;99.90
11087;DHT22;5597;47.588;9.642;2024-03-23T03:36:57;9.30;99.90
11087;DHT22;5597;47.588;9.642;2024-03-23T03:39:23;9.30;99.90
11087;DHT22;5597;47.588;9.642;2024-03-23T03:41:49;9.30;99.90
11087;DHT22;5597;47.588;9.642;2024-03-23T03:44:16;9.40;99.90
11087;DHT22;5597;47.588;9.642;2024-03-23T03:46:42;9.40;99.90
11087;DHT22;5597;47.588;9.642;2024-03-23T03:49:08;9.40;99.90
11087;DHT22;5597;47.588;9.642;2024-03-23T03:51:33;9.40;99.90
11087;DHT22;5597;47.588;9.642;2024-03-23T03:53:59;9.40;99.90
11087;DHT22;5597;47.588;9.642;2024-03-23T03:56:24;9.40;99.90
11087;DHT22;5597;47.588;9.642;2024-03-23T03:58:50;9.40;99.90
11087;DHT22;5597;47.588;9.642;2024-03-23T04:01:16;9.40;99.90
11087;DHT22;5597;47.588;9.642;2024-03-23T04:03:42;9.50;99.90
11087;DHT22;5597;47.588;9.642;2024-03-23T04:06:09;9.40;99.90
11087;DHT22;5597;47.588;9.642;2024-03-23T04:08:35;9.40;99.90
11087;DHT22;5597;47.588;9.642;2024-03-23T04:11:01;9.50;99.90
11087;DHT22;5597;47.588;9.642;2024-03-23T04:13:26;9.50;99.90
11087;DHT22;5597;47.588;9.642;2024-03-23T04:15:55;9.50;99.90
11087;DHT22;5597;47.588;9.642;2024-03-23T04:18:21;9.50;99.90
11087;DHT22;5597;47.588;9.642;2024-03-23T04:20:48;9.50;99.90
11087;DHT22;5597;47.588;9.642;2024-03-23T04:23:14;9.50;99.90
11087;DHT22;5597;47.588;9.642;2024-03-23T04:25:39;9.50;99.90
11087;DHT22;5597;47.588;9.642;2024-03-23T04:28:05;9.50;99.90
11087;DHT22;5597;47.588;9.642;2024-03-23T04:30:31;9.40;99.90
11087;DHT22;5597;47.588;9.642;2024-03-23T04:32:57;9.40;99.90
11087;DHT22;5597;47.588;9.642;2024-03-23T04:35:24;9.30;99.90
11087;DHT22;5597;47.588;9.642;2024-03-23T04:37:50;9.30;99.90
11087;DHT22;5597;47.588;9.642;2024-03-23T04:40:17;9.40;99.90
11087;DHT22;5597;47.588;9.642;2024-03-23T04:42:44;9.30;99.90
11087;DHT22;5597;47.588;9.642;2024-03-23T04:45:09;9.30;99.90
11087;DHT22;5597;47.588;9.642;2024-03-23T04:47:36;9.20;99.90
11087;DHT22;5597;47.588;9.642;2024-03-23T04:50:03;9.20;99.90
11087;DHT22;5597;47.588;9.642;2024-03-23T04:52:29;9.10;99.90
11087;DHT22;5597;47.588;9.642;2024-03-23T04:54:54;9.20;99.90
11087;DHT22;5597;47.588;9.642;2024-03-23T04:57:20;9.10;99.90
11087;DHT22;5597;47.588;9.642;2024-03-23T04:59:46;9.10;99.90
11087;DHT22;5597;47.588;9.642;2024-03-23T05:02:12;9.00;99.90
11087;DHT22;5597;47.588;9.642;2024-03-23T05:04:38;9.00;99.90
11087;DHT22;5597;47.588;9.642;2024-03-23T05:07:04;9.00;99.90
11087;DHT22;5597;47.588;9.642;2024-03-23T05:09:30;8.90;99.90
11087;DHT22;5597;47.588;9.642;2024-03-23T05:11:56;8.90;99.90
11087;DHT22;5597;47.588;9.642;2024-03-23T05:14:22;8.90;99.90
11087;DHT22;5597;47.588;9.642;2024-03-23T05:16:47;8.90;99.90
11087;DHT22;5597;47.588;9.642;2024-03-23T05:19:13;8.90;99.90
11087;DHT22;5597;47.588;9.642;2024-03-23T05:21:39;8.90;99.90
11087;DHT22;5597;47.588;9.642;2024-03-23T05:24:05;9.00;99.90
11087;DHT22;5597;47.588;9.642;2024-03-23T05:26:30;9.00;99.90
11087;DHT22;5597;47.588;9.642;2024-03-23T05:28:56;9.00;99.90
11087;DHT22;5597;47.588;9.642;2024-03-23T05:31:28;9.10;99.90
11087;DHT22;5597;47.588;9.642;2024-03-23T05:33:54;9.10;99.90
11087;DHT22;5597;47.588;9.642;2024-03-23T05:36:20;9.20;99.90
11087;DHT22;5597;47.588;9.642;2024-03-23T05:38:46;9.20;99.90
11087;DHT22;5597;47.588;9.642;2024-03-23T05:41:12;9.30;99.90
11087;DHT22;5597;47.588;9.642;2024-03-23T05:43:37;9.30;99.90
11087;DHT22;5597;47.588;9.642;2024-03-23T05:46:03;9.40;99.90
11087;DHT22;5597;47.588;9.642;2024-03-23T05:48:38;9.40;99.90
11087;DHT22;5597;47.588;9.642;2024-03-23T05:51:04;9.40;99.90
11087;DHT22;5597;47.588;9.642;2024-03-23T05:53:29;9.50;99.90
11087;DHT22;5597;47.588;9.642;2024-03-23T05:56:02;9.50;99.90
11087;DHT22;5597;47.588;9.642;2024-03-23T05:58:32;9.60;99.90
11087;DHT22;5597;47.588;9.642;2024-03-23T06:00:59;9.60;99.90
11087;DHT22;5597;47.588;9.642;2024-03-23T06:03:26;9.60;99.90
11087;DHT22;5597;47.588;9.642;2024-03-23T06:05:52;9.60;99.90
11087;DHT22;5597;47.588;9.642;2024-03-23T06:08:18;9.60;99.90
11087;DHT22;5597;47.588;9.642;2024-03-23T06:10:45;9.60;99.90
11087;DHT22;5597;47.588;9.642;2024-03-23T06:13:11;9.60;99.90
11087;DHT22;5597;47.588;9.642;2024-03-23T06:15:37;9.70;99.90
11087;DHT22;5597;47.588;9.642;2024-03-23T06:18:03;9.60;99.90
11087;DHT22;5597;47.588;9.642;2024-03-23T06:20:30;9.60;99.90
11087;DHT22;5597;47.588;9.642;2024-03-23T06:22:56;9.60;99.90
11087;DHT22;5597;47.588;9.642;2024-03-23T06:25:21;9.70;99.90
11087;DHT22;5597;47.588;9.642;2024-03-23T06:27:47;9.80;99.90
11087;DHT22;5597;47.588;9.642;2024-03-23T06:30:12;10.00;99.90
11087;DHT22;5597;47.588;9.642;2024-03-23T06:32:38;10.20;99.90
11087;DHT22;5597;47.588;9.642;2024-03-23T06:35:04;10.40;99.90
11087;DHT22;5597;47.588;9.642;2024-03-23T06:37:34;10.50;99.90
11087;DHT22;5597;47.588;9.642;2024-03-23T06:39:59;10.60;99.90
11087;DHT22;5597;47.588;9.642;2024-03-23T06:42:25;10.70;99.90
11087;DHT22;5597;47.588;9.642;2024-03-23T06:44:50;10.70;99.90
11087;DHT22;5597;47.588;9.642;2024-03-23T06:47:16;10.60;99.90
11087;DHT22;5597;47.588;9.642;2024-03-23T06:49:42;10.60;99.90
11087;DHT22;5597;47.588;9.642;2024-03-23T06:52:07;10.50;99.90
11087;DHT22;5597;47.588;9.642;2024-03-23T06:54:33;10.50;99.90
11087;DHT22;5597;47.588;9.642;2024-03-23T06:56:58;10.40;99.90
11087;DHT22;5597;47.588;9.642;2024-03-23T06:59:24;10.40;99.90
11087;DHT22;5597;47.588;9.642;2024-03-23T07:01:49;10.30;99.90
11087;DHT22;5597;47.588;9.642;2024-03-23T07:04:15;10.20;99.90
11087;DHT22;5597;47.588;9.642;2024-03-23T07:06:44;10.20;99.90
11087;DHT22;5597;47.588;9.642;2024-03-23T07:09:10;10.10;99.90
11087;DHT22;5597;47.588;9.642;2024-03-23T07:11:36;10.10;99.90
11087;DHT22;5597;47.588;9.642;2024-03-23T07:14:02;10.10;99.90
11087;DHT22;5597;47.588;9.642;2024-03-23T07:16:28;10.00;99.90
11087;DHT22;5597;47.588;9.642;2024-03-23T07:18:54;10.00;99.90
11087;DHT22;5597;47.588;9.642;2024-03-23T07:21:19;10.00;99.90
11087;DHT22;5597;47.588;9.642;2024-03-23T07:23:45;9.90;99.90
11087;DHT22;5597;47.588;9.642;2024-03-23T07:26:11;9.90;99.90
11087;DHT22;5597;47.588;9.642;2024-03-23T07:28:37;9.90;99.90
11087;DHT22;5597;47.588;9.642;2024-03-23T07:31:07;9.80;99.90
11087;DHT22;5597;47.588;9.642;2024-03-23T07:33:46;9.90;99.90
11087;DHT22;5597;47.588;9.642;2024-03-23T07:36:12;9.80;99.90
11087;DHT22;5597;47.588;9.642;2024-03-23T07:38:41;9.70;99.90
11087;DHT22;5597;47.588;9.642;2024-03-23T07:41:08;9.70;99.90
11087;DHT22;5597;47.588;9.642;2024-03-23T07:43:35;9.60;99.90
11087;DHT22;5597;47.588;9.642;2024-03-23T07:46:00;9.60;99.90
11087;DHT22;5597;47.588;9.642;2024-03-23T07:48:26;9.60;99.90
11087;DHT22;5597;47.588;9.642;2024-03-23T07:51:16;9.60;99.90
11087;DHT22;5597;47.588;9.642;2024-03-23T07:53:43;9.60;99.90
11087;DHT22;5597;47.588;9.642;2024-03-23T07:56:10;9.50;99.90
11087;DHT22;5597;47.588;9.642;2024-03-23T07:58:36;9.50;99.90
11087;DHT22;5597;47.588;9.642;2024-03-23T08:01:06;9.50;99.90
11087;DHT22;5597;47.588;9.642;2024-03-23T08:03:34;9.50;99.90
11087;DHT22;5597;47.588;9.642;2024-03-23T08:06:19;9.50;99.90
11087;DHT22;5597;47.588;9.642;2024-03-23T08:08:57;9.50;99.90
11087;DHT22;5597;47.588;9.642;2024-03-23T08:11:42;9.60;99.90
11087;DHT22;5597;47.588;9.642;2024-03-23T08:14:12;9.60;99.90
11087;DHT22;5597;47.588;9.642;2024-03-23T08:16:38;9.60;99.90
11087;DHT22;5597;47.588;9.642;2024-03-23T08:19:03;9.60;99.90
11087;DHT22;5597;47.588;9.642;2024-03-23T08:21:29;9.60;99.90
11087;DHT22;5597;47.588;9.642;2024-03-23T08:23:55;9.60;99.90
11087;DHT22;5597;47.588;9.642;2024-03-23T08:26:20;9.60;99.90
11087;DHT22;5597;47.588;9.642;2024-03-23T08:28:46;9.60;99.90
11087;DHT22;5597;47.588;9.642;2024-03-23T08:31:13;9.60;99.90
11087;DHT22;5597;47.588;9.642;2024-03-23T08:33:40;9.60;99.90
11087;DHT22;5597;47.588;9.642;2024-03-23T08:36:09;9.60;99.90
11087;DHT22;5597;47.588;9.642;2024-03-23T08:38:35;9.60;99.90
11087;DHT22;5597;47.588;9.642;2024-03-23T08:41:02;9.60;99.90
11087;DHT22;5597;47.588;9.642;2024-03-23T08:43:29;9.60;99.90
11087;DHT22;5597;47.588;9.642;2024-03-23T08:46:03;9.60;99.90
11087;DHT22;5597;47.588;9.642;2024-03-23T08:48:30;9.60;99.90
11087;DHT22;5597;47.588;9.642;2024-03-23T08:51:08;9.60;99.90
11087;DHT22;5597;47.588;9.642;2024-03-23T08:53:38;9.50;99.90
11087;DHT22;5597;47.588;9.642;2024-03-23T08:56:05;9.50;99.90
11087;DHT22;5597;47.588;9.642;2024-03-23T08:58:32;9.50;99.90
11087;DHT22;5597;47.588;9.642;2024-03-23T09:01:09;9.60;99.90
11087;DHT22;5597;47.588;9.642;2024-03-23T09:03:36;9.50;99.90
11087;DHT22;5597;47.588;9.642;2024-03-23T09:06:11;9.30;99.90
11087;DHT22;5597;47.588;9.642;2024-03-23T09:08:38;9.20;99.90
11087;DHT22;5597;47.588;9.642;2024-03-23T09:11:05;9.10;99.90
11087;DHT22;5597;47.588;9.642;2024-03-23T09:13:33;9.00;99.90
11087;DHT22;5597;47.588;9.642;2024-03-23T09:15:58;8.90;99.90
11087;DHT22;5597;47.588;9.642;2024-03-23T09:18:24;8.80;99.90
11087;DHT22;5597;47.588;9.642;2024-03-23T09:20:49;8.70;99.90
11087;DHT22;5597;47.588;9.642;2024-03-23T09:23:15;8.60;99.90
11087;DHT22;5597;47.588;9.642;2024-03-23T09:25:41;8.50;99.90
11087;DHT22;5597;47.588;9.642;2024-03-23T09:28:07;8.40;99.90
11087;DHT22;5597;47.588;9.642;2024-03-23T09:30:34;8.30;99.90
11087;DHT22;5597;47.588;9.642;2024-03-23T09:33:00;8.20;99.90
11087;DHT22;5597;47.588;9.642;2024-03-23T09:35:27;8.20;99.90
11087;DHT22;5597;47.588;9.642;2024-03-23T09:37:52;8.20;99.90
11087;DHT22;5597;47.588;9.642;2024-03-23T09:40:18;8.20;99.90
11087;DHT22;5597;47.588;9.642;2024-03-23T09:42:50;8.20;99.90
11087;DHT22;5597;47.588;9.642;2024-03-23T09:45:26;8.20;99.90
11087;DHT22;5597;47.588;9.642;2024-03-23T09:47:52;8.20;99.90
11087;DHT22;5597;47.588;9.642;2024-03-23T09:50:18;8.20;99.90
11087;DHT22;5597;47.588;9.642;2024-03-23T09:52:46;8.10;99.90
11087;DHT22;5597;47.588;9.642;2024-03-23T09:55:11;8.00;99.90
11087;DHT22;5597;47.588;9.642;2024-03-23T09:57:37;8.00;99.90
11087;DHT22;5597;47.588;9.642;2024-03-23T10:00:03;8.00;99.90
11087;DHT22;5597;47.588;9.642;2024-03-23T10:02:29;8.10;99.90
11087;DHT22;5597;47.588;9.642;2024-03-23T10:04:54;8.20;99.90
11087;DHT22;5597;47.588;9.642;2024-03-23T10:07:20;8.30;99.90
11087;DHT22;5597;47.588;9.642;2024-03-23T10:09:47;8.30;99.90
11087;DHT22;5597;47.588;9.642;2024-03-23T10:12:16;8.30;99.90
11087;DHT22;5597;47.588;9.642;2024-03-23T10:14:43;8.40;99.90
11087;DHT22;5597;47.588;9.642;2024-03-23T10:17:16;8.40;99.90
11087;DHT22;5597;47.588;9.642;2024-03-23T10:19:49;8.50;99.90
11087;DHT22;5597;47.588;9.642;2024-03-23T10:22:23;8.50;99.90
11087;DHT22;5597;47.588;9.642;2024-03-23T10:24:52;8.60;99.90
11087;DHT22;5597;47.588;9.642;2024-03-23T10:27:19;8.70;99.90
11087;DHT22;5597;47.588;9.642;2024-03-23T10:29:48;8.80;99.90
11087;DHT22;5597;47.588;9.642;2024-03-23T10:32:16;8.80;99.90
11087;DHT22;5597;47.588;9.642;2024-03-23T10:34:43;8.80;99.90
11087;DHT22;5597;47.588;9.642;2024-03-23T10:37:09;8.90;99.90
11087;DHT22;5597;47.588;9.642;2024-03-23T10:39:37;9.00;99.90
11087;DHT22;5597;47.588;9.642;2024-03-23T10:42:04;9.10;99.90
11087;DHT22;5597;47.588;9.642;2024-03-23T10:44:31;9.20;99.90
11087;DHT22;5597;47.588;9.642;2024-03-23T10:47:01;9.30;99.90
11087;DHT22;5597;47.588;9.642;2024-03-23T10:49:34;9.20;99.90
11087;DHT22;5597;47.588;9.642;2024-03-23T10:52:02;9.20;99.90
11087;DHT22;5597;47.588;9.642;2024-03-23T10:54:30;9.10;99.90
11087;DHT22;5597;47.588;9.642;2024-03-23T10:57:17;9.10;99.90
11087;DHT22;5597;47.588;9.642;2024-03-23T10:59:44;9.10;99.90
11087;DHT22;5597;47.588;9.642;2024-03-23T11:02:19;9.10;99.90
11087;DHT22;5597;47.588;9.642;2024-03-23T11:04:45;9.10;99.90
11087;DHT22;5597;47.588;9.642;2024-03-23T11:07:30;9.20;99.90
11087;DHT22;5597;47.588;9.642;2024-03-23T11:09:56;9.10;99.90
11087;DHT22;5597;47.588;9.642;2024-03-23T11:15:05;9.20;99.90
11087;DHT22;5597;47.588;9.642;2024-03-23T11:17:32;9.30;99.90
11087;DHT22;5597;47.588;9.642;2024-03-23T11:20:05;9.40;99.90
11087;DHT22;5597;47.588;9.642;2024-03-23T11:25:13;9.70;99.90
11087;DHT22;5597;47.588;9.642;2024-03-23T11:27:38;9.90;99.90
11087;DHT22;5597;47.588;9.642;2024-03-23T11:30:18;10.30;99.90
11087;DHT22;5597;47.588;9.642;2024-03-23T11:32:45;10.60;99.90
11087;DHT22;5597;47.588;9.642;2024-03-23T11:35:27;10.70;99.90
11087;DHT22;5597;47.588;9.642;2024-03-23T11:38:08;10.70;99.90
11087;DHT22;5597;47.588;9.642;2024-03-23T11:40:36;10.70;99.90
11087;DHT22;5597;47.588;9.642;2024-03-23T11:43:04;10.60;99.90
11087;DHT22;5597;47.588;9.642;2024-03-23T11:45:47;10.60;99.90
11087;DHT22;5597;47.588;9.642;2024-03-23T11:48:14;10.60;99.90
11087;DHT22;5597;47.588;9.642;2024-03-23T11:50:44;10.50;99.90
11087;DHT22;5597;47.588;9.642;2024-03-23T11:53:14;10.40;99.90
11087;DHT22;5597;47.588;9.642;2024-03-23T11:55:59;10.30;99.90
11087;DHT22;5597;47.588;9.642;2024-03-23T11:58:25;10.30;99.90
11087;DHT22;5597;47.588;9.642;2024-03-23T12:03:19;10.30;99.90
11087;DHT22;5597;47.588;9.642;2024-03-23T12:05:50;10.20;99.90
11087;DHT22;5597;47.588;9.642;2024-03-23T12:08:31;10.30;99.90
11087;DHT22;5597;47.588;9.642;2024-03-23T12:13:37;10.40;99.90
11087;DHT22;5597;47.588;9.642;2024-03-23T12:16:13;10.50;99.90
11087;DHT22;5597;47.588;9.642;2024-03-23T12:18:41;10.40;99.90
11087;DHT22;5597;47.588;9.642;2024-03-23T12:21:08;10.40;99.90
11087;DHT22;5597;47.588;9.642;2024-03-23T12:23:34;10.40;99.90
11087;DHT22;5597;47.588;9.642;2024-03-23T12:26:00;10.40;99.90
11087;DHT22;5597;47.588;9.642;2024-03-23T12:28:26;10.40;99.90
11087;DHT22;5597;47.588;9.642;2024-03-23T12:30:51;10.50;99.90
11087;DHT22;5597;47.588;9.642;2024-03-23T12:33:18;10.50;99.90
11087;DHT22;5597;47.588;9.642;2024-03-23T12:35:44;10.50;99.90
11087;DHT22;5597;47.588;9.642;2024-03-23T12:38:11;10.50;99.90
11087;DHT22;5597;47.588;9.642;2024-03-23T12:40:36;10.50;99.90
11087;DHT22;5597;47.588;9.642;2024-03-23T12:43:02;10.50;99.90
11087;DHT22;5597;47.588;9.642;2024-03-23T12:45:27;10.50;99.90
11087;DHT22;5597;47.588;9.642;2024-03-23T12:47:53;10.60;99.90
11087;DHT22;5597;47.588;9.642;2024-03-23T12:50:19;10.60;99.90
11087;DHT22;5597;47.588;9.642;2024-03-23T12:52:45;10.70;99.90
11087;DHT22;5597;47.588;9.642;2024-03-23T12:55:11;10.80;99.90
11087;DHT22;5597;47.588;9.642;2024-03-23T12:57:37;11.10;99.90
11087;DHT22;5597;47.588;9.642;2024-03-23T13:00:03;11.40;99.90
11087;DHT22;5597;47.588;9.642;2024-03-23T13:02:29;11.80;99.90
11087;DHT22;5597;47.588;9.642;2024-03-23T13:04:55;12.20;99.90
11087;DHT22;5597;47.588;9.642;2024-03-23T13:07:22;12.50;99.90
11087;DHT22;5597;47.588;9.642;2024-03-23T13:09:50;12.60;99.90
11087;DHT22;5597;47.588;9.642;2024-03-23T13:12:16;12.70;99.90
11087;DHT22;5597;47.588;9.642;2024-03-23T13:14:44;12.90;99.90
11087;DHT22;5597;47.588;9.642;2024-03-23T13:17:09;13.10;99.90
11087;DHT22;5597;47.588;9.642;2024-03-23T13:19:35;13.00;99.90
11087;DHT22;5597;47.588;9.642;2024-03-23T13:22:01;12.90;99.90
11087;DHT22;5597;47.588;9.642;2024-03-23T13:24:30;12.60;99.90
11087;DHT22;5597;47.588;9.642;2024-03-23T13:26:56;12.20;99.90
11087;DHT22;5597;47.588;9.642;2024-03-23T13:29:22;11.80;99.90
11087;DHT22;5597;47.588;9.642;2024-03-23T13:31:49;11.50;99.90
11087;DHT22;5597;47.588;9.642;2024-03-23T13:34:17;11.50;99.90
11087;DHT22;5597;47.588;9.642;2024-03-23T13:36:43;11.70;99.90
11087;DHT22;5597;47.588;9.642;2024-03-23T13:39:09;11.70;99.90
11087;DHT22;5597;47.588;9.642;2024-03-23T13:41:38;11.80;99.90
11087;DHT22;5597;47.588;9.642;2024-03-23T13:44:08;11.60;99.90
11087;DHT22;5597;47.588;9.642;2024-03-23T13:46:34;11.50;99.90
11087;DHT22;5597;47.588;9.642;2024-03-23T13:49:00;11.40;99.90
11087;DHT22;5597;47.588;9.642;2024-03-23T13:51:26;11.10;99.90
11087;DHT22;5597;47.588;9.642;2024-03-23T13:53:53;11.30;99.90
11087;DHT22;5597;47.588;9.642;2024-03-23T13:56:20;11.60;99.90
11087;DHT22;5597;47.588;9.642;2024-03-23T13:58:46;11.70;99.90
11087;DHT22;5597;47.588;9.642;2024-03-23T14:01:13;11.70;99.90
11087;DHT22;5597;47.588;9.642;2024-03-23T14:03:39;11.70;99.90
11087;DHT22;5597;47.588;9.642;2024-03-23T14:06:06;11.70;99.90
11087;DHT22;5597;47.588;9.642;2024-03-23T14:08:36;11.80;99.90
11087;DHT22;5597;47.588;9.642;2024-03-23T14:11:05;12.00;99.90
11087;DHT22;5597;47.588;9.642;2024-03-23T14:13:31;12.10;99.90
11087;DHT22;5597;47.588;9.642;2024-03-23T14:15:57;12.20;99.90
11087;DHT22;5597;47.588;9.642;2024-03-23T14:18:23;12.30;99.90
11087;DHT22;5597;47.588;9.642;2024-03-23T14:20:49;12.40;99.90
11087;DHT22;5597;47.588;9.642;2024-03-23T14:23:15;12.50;99.90
11087;DHT22;5597;47.588;9.642;2024-03-23T14:25:41;12.60;99.90
11087;DHT22;5597;47.588;9.642;2024-03-23T14:28:07;12.40;99.90
11087;DHT22;5597;47.588;9.642;2024-03-23T14:30:39;12.20;99.90
11087;DHT22;5597;47.588;9.642;2024-03-23T14:33:04;12.00;99.90
11087;DHT22;5597;47.588;9.642;2024-03-23T14:35:30;11.60;99.90
11087;DHT22;5597;47.588;9.642;2024-03-23T14:37:56;11.30;99.90
11087;DHT22;5597;47.588;9.642;2024-03-23T14:40:22;11.10;99.90
11087;DHT22;5597;47.588;9.642;2024-03-23T14:42:47;11.00;99.90
11087;DHT22;5597;47.588;9.642;2024-03-23T14:45:13;10.90;99.90
11087;DHT22;5597;47.588;9.642;2024-03-23T14:47:40;10.80;99.90
11087;DHT22;5597;47.588;9.642;2024-03-23T14:50:07;10.70;99.90
11087;DHT22;5597;47.588;9.642;2024-03-23T14:52:34;10.70;99.90
11087;DHT22;5597;47.588;9.642;2024-03-23T14:54:59;10.60;99.90
11087;DHT22;5597;47.588;9.642;2024-03-23T14:57:25;10.70;99.90
11087;DHT22;5597;47.588;9.642;2024-03-23T14:59:50;10.90;99.90
11087;DHT22;5597;47.588;9.642;2024-03-23T15:02:17;11.10;99.90
11087;DHT22;5597;47.588;9.642;2024-03-23T15:04:43;11.50;99.90
11087;DHT22;5597;47.588;9.642;2024-03-23T15:07:08;11.70;99.90
11087;DHT22;5597;47.588;9.642;2024-03-23T15:09:34;11.90;99.90
11087;DHT22;5597;47.588;9.642;2024-03-23T15:11:59;12.10;99.90
11087;DHT22;5597;47.588;9.642;2024-03-23T15:14:25;12.10;99.90
11087;DHT22;5597;47.588;9.642;2024-03-23T15:16:50;12.20;99.90
11087;DHT22;5597;47.588;9.642;2024-03-23T15:19:18;12.30;99.90
11087;DHT22;5597;47.588;9.642;2024-03-23T15:21:44;12.30;99.90
11087;DHT22;5597;47.588;9.642;2024-03-23T15:24:10;12.30;99.90
11087;DHT22;5597;47.588;9.642;2024-03-23T15:26:38;12.30;99.90
11087;DHT22;5597;47.588;9.642;2024-03-23T15:29:04;12.30;99.90
11087;DHT22;5597;47.588;9.642;2024-03-23T15:31:37;12.30;99.90
11087;DHT22;5597;47.588;9.642;2024-03-23T15:34:02;12.10;99.90
11087;DHT22;5597;47.588;9.642;2024-03-23T15:36:29;12.00;99.90
11087;DHT22;5597;47.588;9.642;2024-03-23T15:38:54;11.90;99.90
11087;DHT22;5597;47.588;9.642;2024-03-23T15:41:20;11.70;99.90
11087;DHT22;5597;47.588;9.642;2024-03-23T15:43:48;11.60;99.90
11087;DHT22;5597;47.588;9.642;2024-03-23T15:46:14;11.40;99.90
11087;DHT22;5597;47.588;9.642;2024-03-23T15:48:40;11.10;99.90
11087;DHT22;5597;47.588;9.642;2024-03-23T15:51:11;10.90;99.90
11087;DHT22;5597;47.588;9.642;2024-03-23T15:53:37;10.70;99.90
11087;DHT22;5597;47.588;9.642;2024-03-23T15:56:03;10.60;99.90
11087;DHT22;5597;47.588;9.642;2024-03-23T15:58:30;10.40;99.90
11087;DHT22;5597;47.588;9.642;2024-03-23T16:00:57;10.30;99.90
11087;DHT22;5597;47.588;9.642;2024-03-23T16:03:23;10.20;99.90
11087;DHT22;5597;47.588;9.642;2024-03-23T16:06:05;10.20;99.90
11087;DHT22;5597;47.588;9.642;2024-03-23T16:08:31;10.20;99.90
11087;DHT22;5597;47.588;9.642;2024-03-23T16:11:01;10.20;99.90
11087;DHT22;5597;47.588;9.642;2024-03-23T16:13:27;10.20;99.90
11087;DHT22;5597;47.588;9.642;2024-03-23T16:16:03;10.20;99.90
11087;DHT22;5597;47.588;9.642;2024-03-23T16:18:32;10.20;99.90
11087;DHT22;5597;47.588;9.642;2024-03-23T16:21:02;10.30;99.90
11087;DHT22;5597;47.588;9.642;2024-03-23T16:23:28;10.20;99.90
11087;DHT22;5597;47.588;9.642;2024-03-23T16:25:55;10.30;99.90
11087;DHT22;5597;47.588;9.642;2024-03-23T16:31:00;10.30;99.90
11087;DHT22;5597;47.588;9.642;2024-03-23T16:33:26;10.20;99.90
11087;DHT22;5597;47.588;9.642;2024-03-23T16:36:00;10.20;99.90
11087;DHT22;5597;47.588;9.642;2024-03-23T16:38:29;10.20;99.90
11087;DHT22;5597;47.588;9.642;2024-03-23T16:41:03;10.20;99.90
11087;DHT22;5597;47.588;9.642;2024-03-23T16:43:33;10.10;99.90
11087;DHT22;5597;47.588;9.642;2024-03-23T16:46:06;10.10;99.90
11087;DHT22;5597;47.588;9.642;2024-03-23T16:48:34;10.10;99.90
11087;DHT22;5597;47.588;9.642;2024-03-23T16:51:01;10.10;99.90
11087;DHT22;5597;47.588;9.642;2024-03-23T16:53:29;10.00;99.90
11087;DHT22;5597;47.588;9.642;2024-03-23T16:58:26;9.90;99.90
11087;DHT22;5597;47.588;9.642;2024-03-23T17:00:52;9.80;99.90
11087;DHT22;5597;47.588;9.642;2024-03-23T17:03:22;9.80;99.90